Time,TemperatureF,DewpointF,PressureIn,WindDirection,WindDirectionDegrees,WindSpeedMPH,WindSpeedGustMPH,Humidity,HourlyPrecipIn,Conditions,Clouds,dailyrainin,SoftwareType,DateUTC
2013-01-26 00:00:00,39.8,38.4,24.08,North,0,0.0,-999.0,95,0.04,,,0.17,,2013-01-26 08:00:00,
2013-01-26 01:00:00,39.6,38.3,24.07,North,0,0.0,-999.0,95,0.00,,,0.17,,2013-01-26 09:00:00,
2013-01-26 02:00:00,40.0,38.6,24.06,North,0,0.0,-999.0,95,0.02,,,0.19,,2013-01-26 10:00:00,
2013-01-26 03:00:00,39.6,38.3,24.05,North,0,0.0,-999.0,95,0.00,,,0.19,,2013-01-26 11:00:00,
2013-01-26 04:00:00,39.4,38.1,24.03,North,0,0.0,-999.0,95,0.00,,,0.19,,2013-01-26 12:00:00,
2013-01-26 05:00:00,40.1,38.8,24.03,North,0,0.0,-999.0,95,0.00,,,0.21,,2013-01-26 13:00:00,
2013-01-26 06:00:00,39.4,38.1,24.02,North,0,0.0,-999.0,95,0.00,,,0.21,,2013-01-26 14:00:00,
2013-01-26 07:06:00,39.2,38.2,24.02,North,0,0.0,-999.0,96,0.00,,,0.21,,2013-01-26 15:06:00,
2013-01-26 08:00:00,39.4,38.3,24.01,North,0,0.0,-999.0,96,0.00,,,0.21,,2013-01-26 16:00:00,
2013-01-26 09:06:00,40.9,39.8,24.01,North,0,0.0,-999.0,96,0.00,,,0.21,,2013-01-26 17:06:00,
2013-01-26 10:00:00,40.9,39.8,24.03,North,0,0.0,-999.0,96,0.00,,,0.21,,2013-01-26 18:00:00,
2013-01-26 11:06:00,41.2,40.1,24.03,North,0,0.0,-999.0,96,0.00,,,0.21,,2013-01-26 19:06:00,
2013-01-26 12:00:00,41.6,40.5,24.01,North,0,0.0,-999.0,96,0.00,,,0.21,,2013-01-26 20:00:00,
2013-01-26 13:06:00,40.7,39.6,24.01,North,0,0.0,-999.0,96,0.00,,,0.21,,2013-01-26 21:06:00,
2013-01-26 14:00:00,40.9,39.8,23.99,North,0,0.0,-999.0,96,0.00,,,0.21,,2013-01-26 22:00:00,
2013-01-26 15:06:00,40.0,38.6,23.99,North,0,0.0,-999.0,95,0.00,,,0.21,,2013-01-26 23:06:00,
2013-01-26 16:00:00,39.6,38.3,23.99,North,0,0.0,-999.0,95,0.00,,,0.21,,2013-01-27 00:00:00,
2013-01-26 17:07:00,39.1,37.7,23.99,North,0,0.0,-999.0,95,0.00,,,0.21,,2013-01-27 01:07:00,
2013-01-26 18:00:00,38.5,37.2,23.99,North,0,0.0,-999.0,95,0.00,,,0.21,,2013-01-27 02:00:00,
2013-01-26 19:00:00,38.5,37.4,24.00,North,0,0.0,-999.0,96,0.00,,,0.21,,2013-01-27 03:00:00,
2013-01-26 20:00:00,37.8,36.7,23.99,North,0,0.0,-999.0,96,0.00,,,0.19,,2013-01-27 04:00:00,
2013-01-26 21:00:00,37.1,35.7,24.00,North,0,0.0,-999.0,95,0.00,,,0.12,,2013-01-27 05:00:00,
2013-01-26 22:00:00,36.7,35.1,24.00,North,0,0.0,-999.0,94,0.00,,,0.08,,2013-01-27 06:00:00,
2013-01-26 23:00:00,36.4,34.7,24.00,North,0,0.0,-999.0,94,0.00,,,0.08,,2013-01-27 07:00:00,